Time;durP1;ratioP1;P1;durP2;ratioP2;P2;SDS_P1;SDS_P2;PMS_P1;PMS_P2;Temp;Humidity;BMP_temperature;BMP_pressure;BME280_temperature;BME280_humidity;BME280_pressure;Samples;Min_cycle;Max_cycle;Signal;HPM_P1;HPM_P2
2021/12/06 00:01:41;;;;;;;50.13;24.75;;;2.30;99.90;;;;;;5017818;28;20488;-73
2021/12/06 00:04:12;;;;;;;54.30;25.30;;;2.30;99.90;;;;;;5016510;28;20037;-73
2021/12/06 00:06:41;;;;;;;50.90;23.90;;;2.40;99.90;;;;;;5012520;28;20034;-72
2021/12/06 00:09:14;;;;;;;46.20;23.55;;;2.40;99.90;;;;;;5019786;28;20367;-72
2021/12/06 00:11:40;;;;;;;50.40;24.13;;;2.40;99.90;;;;;;5017384;28;20064;-72
2021/12/06 00:14:06;;;;;;;52.92;24.67;;;2.40;99.90;;;;;;5017382;28;20028;-73
2021/12/06 00:16:32;;;;;;;52.22;23.75;;;2.40;99.90;;;;;;5017478;28;20061;-73
2021/12/06 00:18:58;;;;;;;52.55;22.90;;;2.40;99.90;;;;;;5015841;28;20046;-72
2021/12/06 00:21:24;;;;;;;53.97;24.25;;;2.40;99.90;;;;;;5014409;28;20052;-73
2021/12/06 00:23:51;;;;;;;46.45;23.48;;;2.40;99.90;;;;;;5017747;28;20022;-73
2021/12/06 00:26:17;;;;;;;47.10;22.98;;;2.40;99.90;;;;;;5023235;28;20026;-72
2021/12/06 00:28:45;;;;;;;51.15;23.17;;;2.40;99.90;;;;;;5020062;28;20060;-73
2021/12/06 00:31:13;;;;;;;44.35;21.70;;;2.40;99.90;;;;;;5014750;28;20530;-72
2021/12/06 00:33:39;;;;;;;52.55;23.48;;;2.40;99.90;;;;;;4997116;28;20030;-73
2021/12/06 00:36:15;;;;;;;47.53;23.73;;;2.40;99.90;;;;;;5019495;28;20496;-72
2021/12/06 00:38:43;;;;;;;55.97;24.27;;;2.40;99.90;;;;;;5013554;28;20071;-72
2021/12/06 00:41:09;;;;;;;47.40;23.70;;;2.40;99.90;;;;;;5023254;28;20029;-72
2021/12/06 00:43:34;;;;;;;48.47;21.75;;;2.40;99.90;;;;;;5018329;28;20025;-73
2021/12/06 00:46:01;;;;;;;53.22;23.45;;;2.40;99.90;;;;;;4999354;28;20044;-73
2021/12/06 00:48:26;;;;;;;51.47;23.23;;;2.40;99.90;;;;;;5017711;28;20045;-72
2021/12/06 00:50:52;;;;;;;47.55;23.70;;;2.40;99.90;;;;;;5013407;28;20038;-73
2021/12/06 00:53:18;;;;;;;44.08;23.00;;;2.40;99.90;;;;;;5017610;28;20545;-72
2021/12/06 00:55:44;;;;;;;45.13;22.67;;;2.40;99.90;;;;;;5017215;28;20048;-72
2021/12/06 00:58:10;;;;;;;50.90;24.25;;;2.40;99.90;;;;;;5014874;28;20065;-73
2021/12/06 01:00:40;;;;;;;49.75;22.65;;;2.40;99.90;;;;;;5019728;28;20034;-73
2021/12/06 01:03:14;;;;;;;55.35;24.23;;;2.40;99.90;;;;;;5015217;28;20514;-72
2021/12/06 01:05:41;;;;;;;48.38;23.13;;;2.40;99.90;;;;;;5015727;28;20045;-72
2021/12/06 01:08:07;;;;;;;49.08;24.23;;;2.40;99.90;;;;;;5016031;28;20050;-72
2021/12/06 01:10:34;;;;;;;49.20;23.60;;;2.40;99.90;;;;;;5023644;28;20033;-73
2021/12/06 01:13:02;;;;;;;47.63;23.40;;;2.40;99.90;;;;;;5022404;28;20546;-72
2021/12/06 01:15:28;;;;;;;44.20;22.40;;;2.40;99.90;;;;;;5022673;28;20070;-74
2021/12/06 01:17:54;;;;;;;44.17;22.15;;;2.40;99.90;;;;;;5002665;28;20030;-73
2021/12/06 01:20:24;;;;;;;46.80;23.33;;;2.50;99.90;;;;;;5001358;28;20108;-73
2021/12/06 01:22:58;;;;;;;46.95;21.33;;;2.40;99.90;;;;;;5020074;28;20396;-73
2021/12/06 01:31:09;;;;;;;47.83;22.60;;;2.40;99.90;;;;;;5017277;28;20419;-73
2021/12/06 01:41:48;;;;;;;46.13;22.08;;;2.40;99.90;;;;;;5002524;28;20061;-73
2021/12/06 01:44:15;;;;;;;52.28;24.17;;;2.40;99.90;;;;;;5018066;28;20076;-73
2021/12/06 01:47:09;;;;;;;46.47;22.75;;;2.40;99.90;;;;;;5001861;28;20033;-74
2021/12/06 01:49:45;;;;;;;48.00;22.02;;;2.40;99.90;;;;;;4996400;28;20068;-73
2021/12/06 01:52:16;;;;;;;48.67;23.10;;;2.40;99.90;;;;;;5018544;28;20049;-73
2021/12/06 01:54:42;;;;;;;49.40;23.67;;;2.40;99.90;;;;;;5018140;28;20034;-73
2021/12/06 01:57:08;;;;;;;46.20;22.60;;;2.30;99.90;;;;;;5003681;28;20041;-73
2021/12/06 01:59:34;;;;;;;49.00;22.38;;;2.30;99.90;;;;;;5017538;28;20033;-73
2021/12/06 02:02:00;;;;;;;53.75;24.77;;;2.30;99.90;;;;;;5019992;28;20108;-73
2021/12/06 02:04:29;;;;;;;55.53;25.20;;;2.30;99.90;;;;;;5018349;28;20108;-73
2021/12/06 02:06:59;;;;;;;49.78;24.38;;;2.20;99.90;;;;;;5019650;28;20149;-73
2021/12/06 02:09:27;;;;;;;51.38;24.67;;;2.20;99.90;;;;;;5020158;28;20025;-72
2021/12/06 02:11:54;;;;;;;46.97;23.80;;;2.20;99.90;;;;;;5019383;28;20029;-72
2021/12/06 02:17:12;;;;;;;53.40;25.10;;;2.20;99.90;;;;;;5019163;28;20513;-73
2021/12/06 02:19:44;;;;;;;53.42;24.38;;;2.10;99.90;;;;;;5018381;28;20433;-72
2021/12/06 02:22:12;;;;;;;50.53;23.98;;;2.20;99.90;;;;;;5009052;28;20530;-73
2021/12/06 02:24:38;;;;;;;57.80;25.70;;;2.20;99.90;;;;;;5019672;28;20038;-73
2021/12/06 02:27:08;;;;;;;48.78;23.33;;;2.20;99.90;;;;;;4999829;28;20367;-73
2021/12/06 02:29:35;;;;;;;45.50;22.37;;;2.20;99.90;;;;;;5020743;28;20041;-72
2021/12/06 02:32:05;;;;;;;49.97;23.35;;;2.10;99.90;;;;;;5017733;28;20648;-72
2021/12/06 02:34:32;;;;;;;46.20;23.43;;;2.10;99.90;;;;;;5020744;28;20052;-73
2021/12/06 02:36:58;;;;;;;51.80;23.98;;;2.10;99.90;;;;;;5017111;28;20479;-73
2021/12/06 02:39:25;;;;;;;53.15;25.27;;;2.10;99.90;;;;;;5019739;28;20035;-73
2021/12/06 02:41:53;;;;;;;50.30;24.90;;;2.10;99.90;;;;;;5017767;28;20033;-72
2021/12/06 02:44:19;;;;;;;50.90;24.50;;;2.10;99.90;;;;;;5023850;28;20029;-73
2021/12/06 02:46:45;;;;;;;46.38;23.27;;;2.10;99.90;;;;;;5016817;28;20029;-72
2021/12/06 02:49:11;;;;;;;50.22;24.50;;;2.00;99.90;;;;;;5014605;28;20032;-73
2021/12/06 02:51:37;;;;;;;46.33;22.80;;;2.00;99.90;;;;;;5017432;28;20084;-73
2021/12/06 02:54:03;;;;;;;51.20;23.98;;;2.00;99.90;;;;;;5017685;28;20396;-72
2021/12/06 02:56:39;;;;;;;46.28;22.80;;;2.00;99.90;;;;;;5018758;28;20032;-72
2021/12/06 02:59:09;;;;;;;52.80;24.52;;;2.00;99.90;;;;;;5023822;28;20058;-73
2021/12/06 03:01:40;;;;;;;49.05;24.02;;;2.00;99.90;;;;;;4999357;28;20050;-72
2021/12/06 03:04:08;;;;;;;51.08;24.42;;;1.90;99.90;;;;;;5016615;28;20041;-72
2021/12/06 03:06:34;;;;;;;49.35;24.48;;;1.90;99.90;;;;;;5018927;28;20032;-72
2021/12/06 03:09:08;;;;;;;49.97;24.23;;;1.90;99.90;;;;;;5018826;28;20048;-72
2021/12/06 03:11:44;;;;;;;54.70;25.58;;;1.90;99.90;;;;;;5001434;28;20052;-73
2021/12/06 03:14:13;;;;;;;47.83;23.85;;;1.80;99.90;;;;;;5018353;28;20022;-73
2021/12/06 03:16:39;;;;;;;53.00;25.50;;;1.80;99.90;;;;;;5023274;28;20030;-72
2021/12/06 03:19:06;;;;;;;48.35;22.77;;;1.80;99.90;;;;;;5020787;28;20032;-72
2021/12/06 03:21:32;;;;;;;49.55;24.65;;;1.80;99.90;;;;;;5019900;28;20113;-73
2021/12/06 03:23:59;;;;;;;55.08;25.15;;;1.70;99.90;;;;;;5016851;28;20072;-72
2021/12/06 03:26:26;;;;;;;55.72;25.73;;;1.70;99.90;;;;;;5000354;28;20026;-73
2021/12/06 03:28:53;;;;;;;50.72;25.42;;;1.70;99.90;;;;;;5020541;28;20029;-72
2021/12/06 03:31:19;;;;;;;54.97;24.55;;;1.70;99.90;;;;;;5020144;28;20121;-73
2021/12/06 03:33:50;;;;;;;47.88;24.25;;;1.70;99.90;;;;;;5022610;28;20103;-72
2021/12/06 03:36:18;;;;;;;55.80;24.40;;;1.70;99.90;;;;;;5022414;28;20072;-73
2021/12/06 03:38:44;;;;;;;50.33;24.50;;;1.70;99.90;;;;;;5016260;28;20064;-72
2021/12/06 03:41:12;;;;;;;50.28;25.00;;;1.70;99.90;;;;;;5021285;28;20022;-72
2021/12/06 03:43:39;;;;;;;51.53;24.05;;;1.70;99.90;;;;;;5020557;28;20040;-73
2021/12/06 03:46:05;;;;;;;52.88;25.83;;;1.70;99.90;;;;;;5031715;28;20025;-72
2021/12/06 03:48:31;;;;;;;49.63;23.50;;;1.70;99.90;;;;;;5026234;28;20072;-72
2021/12/06 03:50:58;;;;;;;46.33;23.50;;;1.70;99.90;;;;;;5023066;28;20017;-72
2021/12/06 03:53:25;;;;;;;49.45;22.95;;;1.70;99.90;;;;;;5019549;28;20017;-73
2021/12/06 03:55:50;;;;;;;44.00;21.67;;;1.70;99.90;;;;;;5002709;28;20406;-73
2021/12/06 03:58:16;;;;;;;46.45;23.42;;;1.70;99.90;;;;;;5021601;28;20125;-73
2021/12/06 04:00:42;;;;;;;48.35;23.95;;;1.70;99.90;;;;;;5018422;28;20034;-73
2021/12/06 04:03:09;;;;;;;50.72;22.92;;;1.70;99.90;;;;;;5020651;28;20384;-73
2021/12/06 04:05:35;;;;;;;46.92;23.73;;;1.70;99.90;;;;;;5019255;28;20026;-72
2021/12/06 04:08:01;;;;;;;54.83;25.55;;;1.70;99.90;;;;;;5018858;28;20040;-72
2021/12/06 04:10:27;;;;;;;51.63;25.45;;;1.80;99.90;;;;;;5020473;28;20025;-73
2021/12/06 04:12:58;;;;;;;55.78;25.02;;;1.80;99.90;;;;;;5016477;28;20026;-73
2021/12/06 04:15:24;;;;;;;50.78;24.67;;;1.80;99.90;;;;;;5025986;28;20531;-73
2021/12/06 04:17:50;;;;;;;48.80;23.63;;;1.90;99.90;;;;;;5021158;28;20060;-73
2021/12/06 04:20:17;;;;;;;52.83;24.33;;;1.90;99.90;;;;;;5023722;28;20087;-73
2021/12/06 04:22:43;;;;;;;48.15;22.60;;;1.90;99.90;;;;;;5018027;28;20033;-72
2021/12/06 04:25:12;;;;;;;50.83;24.23;;;1.90;99.90;;;;;;5022540;28;20483;-73
2021/12/06 04:27:40;;;;;;;47.15;23.73;;;1.90;99.90;;;;;;5018424;28;20052;-73
2021/12/06 04:30:08;;;;;;;47.35;23.13;;;1.80;99.90;;;;;;5016960;28;20037;-73
2021/12/06 04:32:34;;;;;;;51.80;24.38;;;1.80;99.90;;;;;;5013337;28;20030;-72
2021/12/06 04:34:59;;;;;;;49.88;23.63;;;1.80;99.90;;;;;;5019815;28;20081;-72
2021/12/06 04:37:25;;;;;;;47.65;22.30;;;1.80;99.90;;;;;;5013210;28;20017;-72
2021/12/06 04:39:52;;;;;;;47.47;21.58;;;1.80;99.90;;;;;;5017124;28;20365;-72
2021/12/06 04:42:21;;;;;;;48.53;23.98;;;1.80;99.90;;;;;;5001254;28;20040;-73
2021/12/06 04:44:47;;;;;;;48.90;22.40;;;1.70;99.90;;;;;;5016868;28;20068;-72
2021/12/06 04:47:13;;;;;;;53.83;23.88;;;1.70;99.90;;;;;;5017258;28;20065;-72
2021/12/06 04:49:39;;;;;;;50.20;21.00;;;1.70;99.90;;;;;;5019076;28;20698;-72
2021/12/06 04:52:08;;;;;;;43.75;20.38;;;1.70;99.90;;;;;;5017840;28;20058;-72
2021/12/06 04:54:38;;;;;;;48.33;21.70;;;1.60;99.90;;;;;;5021933;28;20348;-73
2021/12/06 04:57:20;;;;;;;41.33;18.88;;;1.60;99.90;;;;;;5005066;28;20018;-74
2021/12/06 04:59:56;;;;;;;41.03;19.75;;;1.70;99.90;;;;;;5020003;28;20488;-72
2021/12/06 05:02:26;;;;;;;42.85;20.30;;;1.70;99.90;;;;;;5019549;28;20428;-72
2021/12/06 05:05:02;;;;;;;40.47;18.52;;;1.70;99.90;;;;;;5016908;28;20491;-73
2021/12/06 05:07:35;;;;;;;42.85;18.98;;;1.80;99.90;;;;;;5022118;28;20033;-72
2021/12/06 05:10:03;;;;;;;40.53;19.10;;;1.90;99.90;;;;;;5017560;28;20100;-73
2021/12/06 05:12:30;;;;;;;44.03;19.55;;;1.90;99.90;;;;;;5010320;28;20036;-73
2021/12/06 05:14:57;;;;;;;38.00;17.85;;;1.90;99.90;;;;;;5022513;28;20534;-72
2021/12/06 05:17:23;;;;;;;38.65;18.00;;;1.90;99.90;;;;;;5010167;28;20029;-72
2021/12/06 05:19:49;;;;;;;40.95;18.27;;;2.00;99.90;;;;;;5021814;28;20536;-73
2021/12/06 05:22:15;;;;;;;32.75;16.75;;;2.00;99.90;;;;;;5021005;28;20072;-72
2021/12/06 05:24:42;;;;;;;34.05;17.08;;;2.00;99.90;;;;;;5025397;28;20093;-72
2021/12/06 05:27:07;;;;;;;35.58;16.58;;;2.00;99.90;;;;;;5026211;28;20108;-72
2021/12/06 05:29:34;;;;;;;32.15;15.35;;;2.00;99.90;;;;;;5023485;28;20108;-72
2021/12/06 05:32:01;;;;;;;35.67;17.40;;;2.00;99.90;;;;;;5014341;28;20369;-72
2021/12/06 05:34:37;;;;;;;31.80;15.90;;;2.00;99.90;;;;;;5019220;28;20022;-73
2021/12/06 05:37:05;;;;;;;34.40;16.52;;;2.00;99.90;;;;;;5021794;28;20025;-72
2021/12/06 05:39:30;;;;;;;33.95;16.42;;;2.00;99.90;;;;;;5019221;28;20026;-73
2021/12/06 05:41:59;;;;;;;36.00;16.77;;;2.00;99.90;;;;;;5025947;28;20034;-73
2021/12/06 05:44:25;;;;;;;35.03;15.65;;;2.00;99.90;;;;;;5020483;28;20036;-73
2021/12/06 05:46:51;;;;;;;36.95;17.23;;;2.00;99.90;;;;;;5023522;28;20030;-72
2021/12/06 05:49:16;;;;;;;32.70;16.17;;;2.00;99.90;;;;;;5025719;28;20566;-73
2021/12/06 05:51:42;;;;;;;35.65;16.90;;;2.00;99.90;;;;;;5019026;28;20026;-72
2021/12/06 05:54:07;;;;;;;32.75;17.13;;;2.00;99.90;;;;;;5013956;28;20061;-72
2021/12/06 05:56:33;;;;;;;32.30;16.67;;;2.00;99.90;;;;;;5017743;28;20476;-73
2021/12/06 05:58:59;;;;;;;37.00;17.50;;;2.00;99.90;;;;;;5028289;28;20735;-74
2021/12/06 06:01:29;;;;;;;34.58;16.75;;;1.90;99.90;;;;;;4998092;28;20034;-73
2021/12/06 06:04:00;;;;;;;32.33;15.80;;;1.90;99.90;;;;;;5040486;28;20034;-73
2021/12/06 06:06:30;;;;;;;;;;;2.00;99.90;;;;;;5017559;28;20343;-73
2021/12/06 06:08:55;;;;;;;30.95;14.82;;;2.00;99.90;;;;;;5023277;28;19940;-73
2021/12/06 06:11:21;;;;;;;33.60;16.13;;;2.00;99.90;;;;;;5021955;28;20057;-72
2021/12/06 06:13:47;;;;;;;39.25;17.83;;;2.00;99.90;;;;;;5016917;28;20380;-73
2021/12/06 06:16:17;;;;;;;33.00;16.00;;;2.00;99.90;;;;;;5018375;28;20087;-72
2021/12/06 06:18:43;;;;;;;35.47;17.17;;;2.00;99.90;;;;;;5015268;28;20030;-73
2021/12/06 06:21:09;;;;;;;29.42;15.85;;;2.00;99.90;;;;;;5020421;28;20033;-73
2021/12/06 06:23:34;;;;;;;30.02;15.20;;;2.10;99.90;;;;;;5023552;28;20042;-72
2021/12/06 06:26:00;;;;;;;31.80;16.08;;;2.00;99.90;;;;;;5001462;28;20026;-73
2021/12/06 06:28:26;;;;;;;29.73;15.55;;;2.10;99.90;;;;;;5019615;28;20065;-74
2021/12/06 06:30:52;;;;;;;37.00;16.98;;;2.00;99.90;;;;;;5017861;28;20022;-73
2021/12/06 06:33:18;;;;;;;33.25;16.85;;;2.00;99.90;;;;;;5016774;28;20495;-73
2021/12/06 06:35:43;;;;;;;29.52;15.55;;;2.00;99.90;;;;;;5015461;28;20028;-73
2021/12/06 06:38:09;;;;;;;30.13;16.40;;;2.10;99.90;;;;;;5020062;28;20026;-72
2021/12/06 06:40:35;;;;;;;32.05;16.67;;;2.00;99.90;;;;;;5016783;28;20069;-73
2021/12/06 06:43:01;;;;;;;33.08;15.57;;;2.00;99.90;;;;;;5015336;28;20028;-73
2021/12/06 06:45:27;;;;;;;35.45;16.15;;;2.10;99.90;;;;;;5019627;28;20030;-73
2021/12/06 06:47:53;;;;;;;34.53;16.23;;;2.00;99.90;;;;;;5024189;28;20036;-72
2021/12/06 06:50:19;;;;;;;34.35;17.20;;;2.00;99.90;;;;;;5022742;28;20072;-73
2021/12/06 06:52:46;;;;;;;34.25;15.43;;;2.00;99.90;;;;;;5027766;28;20512;-73
2021/12/06 06:55:13;;;;;;;30.65;16.35;;;2.00;99.90;;;;;;5002457;28;20067;-73
2021/12/06 06:57:40;;;;;;;37.15;16.60;;;2.00;99.90;;;;;;5020442;28;20088;-73
2021/12/06 07:00:16;;;;;;;33.33;15.95;;;2.00;99.90;;;;;;5022793;28;20029;-73
2021/12/06 07:02:43;;;;;;;30.85;15.73;;;2.00;99.90;;;;;;5015487;28;20095;-73
2021/12/06 07:05:12;;;;;;;34.83;16.35;;;2.00;99.90;;;;;;5015379;28;20384;-72
2021/12/06 07:07:38;;;;;;;35.33;16.48;;;2.00;99.90;;;;;;5022787;28;20559;-74
2021/12/06 07:10:05;;;;;;;30.33;15.60;;;2.00;99.90;;;;;;5013814;28;20037;-75
2021/12/06 07:12:34;;;;;;;34.97;15.95;;;1.90;99.90;;;;;;5022799;28;20029;-75
2021/12/06 07:14:59;;;;;;;36.25;16.33;;;1.90;99.90;;;;;;5014392;28;20439;-75
2021/12/06 07:17:25;;;;;;;30.77;16.45;;;1.90;99.90;;;;;;5001748;28;20033;-74
2021/12/06 07:19:52;;;;;;;31.92;16.17;;;1.90;99.90;;;;;;5021271;28;20060;-75
2021/12/06 07:22:17;;;;;;;30.40;15.30;;;1.90;99.90;;;;;;5018724;28;20030;-76
2021/12/06 07:24:43;;;;;;;32.60;15.63;;;1.90;99.90;;;;;;5022605;28;20112;-75
2021/12/06 07:27:09;;;;;;;28.65;15.18;;;1.90;99.90;;;;;;5017395;28;20026;-75
2021/12/06 07:29:36;;;;;;;27.95;15.30;;;1.90;99.90;;;;;;5017572;28;20535;-76
2021/12/06 07:32:04;;;;;;;28.17;13.93;;;1.90;99.90;;;;;;5026879;28;20061;-76
2021/12/06 07:34:30;;;;;;;26.25;13.95;;;1.90;99.90;;;;;;5022198;28;20068;-76
2021/12/06 07:36:56;;;;;;;32.45;14.98;;;1.90;99.90;;;;;;5018309;28;20057;-76
2021/12/06 07:39:22;;;;;;;29.27;14.75;;;1.90;99.90;;;;;;5014025;28;20101;-75
2021/12/06 07:41:48;;;;;;;33.03;15.00;;;1.80;99.90;;;;;;5020906;28;20108;-76
2021/12/06 07:44:13;;;;;;;29.35;14.60;;;1.80;99.90;;;;;;5021190;28;20117;-75
2021/12/06 07:46:39;;;;;;;29.05;14.82;;;1.80;99.90;;;;;;5015827;28;20159;-76
2021/12/06 07:49:05;;;;;;;31.33;15.20;;;1.70;99.90;;;;;;5019444;28;20030;-76
2021/12/06 07:51:30;;;;;;;31.13;15.52;;;1.70;99.90;;;;;;5026025;28;20491;-76
2021/12/06 07:53:57;;;;;;;34.10;16.20;;;1.70;99.90;;;;;;5021696;28;20022;-75
2021/12/06 07:56:24;;;;;;;31.20;15.85;;;1.80;99.90;;;;;;5018171;28;20033;-75
2021/12/06 07:58:50;;;;;;;30.73;14.13;;;1.80;99.90;;;;;;5002723;28;20025;-75
2021/12/06 08:01:17;;;;;;;27.30;14.43;;;1.80;99.90;;;;;;5014169;28;20022;-74
2021/12/06 08:03:43;;;;;;;28.45;14.65;;;1.80;99.90;;;;;;5021981;28;20025;-75
2021/12/06 08:06:10;;;;;;;31.10;15.23;;;1.90;99.90;;;;;;5021319;28;20030;-75
2021/12/06 08:08:38;;;;;;;27.73;15.02;;;1.80;99.90;;;;;;5021574;28;20522;-74
2021/12/06 08:11:14;;;;;;;27.25;14.63;;;1.80;99.90;;;;;;5009886;28;20068;-74
2021/12/06 08:13:43;;;;;;;28.20;14.48;;;1.90;99.90;;;;;;5015290;28;20105;-75
2021/12/06 08:16:13;;;;;;;28.40;15.25;;;1.90;99.90;;;;;;5016437;28;20067;-74
2021/12/06 08:18:40;;;;;;;29.13;15.95;;;1.90;99.90;;;;;;5026804;28;20017;-74
2021/12/06 08:21:07;;;;;;;28.65;15.23;;;1.90;99.90;;;;;;5029316;28;20056;-75
2021/12/06 08:23:34;;;;;;;27.80;13.52;;;1.90;99.90;;;;;;5020413;28;20088;-75
2021/12/06 08:26:02;;;;;;;25.98;13.80;;;1.80;99.90;;;;;;5026242;28;20030;-74
2021/12/06 08:28:28;;;;;;;31.98;15.35;;;1.80;99.90;;;;;;5027041;28;20060;-73
2021/12/06 08:30:54;;;;;;;27.52;13.88;;;1.80;99.90;;;;;;5024687;28;20097;-72
2021/12/06 08:33:21;;;;;;;29.15;14.35;;;1.80;99.90;;;;;;5008562;28;20026;-73
2021/12/06 08:35:52;;;;;;;26.77;14.90;;;1.80;99.90;;;;;;5028465;28;20569;-72
2021/12/06 08:38:19;;;;;;;29.08;14.48;;;1.90;99.90;;;;;;5023687;28;20087;-73
2021/12/06 08:40:48;;;;;;;27.40;14.35;;;1.80;99.90;;;;;;5026623;28;20495;-72
2021/12/06 08:43:17;;;;;;;28.77;13.82;;;1.80;99.90;;;;;;5030447;28;20040;-72
2021/12/06 08:45:55;;;;;;;27.08;14.27;;;1.80;99.90;;;;;;5025749;28;20030;-72
2021/12/06 08:48:24;;;;;;;26.85;14.43;;;1.80;99.90;;;;;;5024746;28;20120;-72
2021/12/06 08:50:52;;;;;;;25.33;13.82;;;1.80;99.90;;;;;;5030406;28;20076;-72
2021/12/06 08:53:18;;;;;;;26.80;13.63;;;1.80;99.90;;;;;;5029584;28;20064;-73
2021/12/06 08:55:44;;;;;;;31.80;14.27;;;1.80;99.90;;;;;;5017321;28;20057;-72
2021/12/06 08:58:10;;;;;;;29.02;14.63;;;1.80;99.90;;;;;;5020779;28;20022;-74
2021/12/06 09:00:38;;;;;;;28.10;14.63;;;1.80;99.90;;;;;;5024074;28;20038;-73
2021/12/06 09:03:05;;;;;;;29.17;14.88;;;1.80;99.90;;;;;;5024154;28;20026;-73
2021/12/06 09:05:35;;;;;;;24.45;13.38;;;1.80;99.90;;;;;;5024178;28;20084;-72
2021/12/06 09:08:01;;;;;;;30.48;14.38;;;1.80;99.90;;;;;;5025169;28;20075;-73
2021/12/06 09:10:27;;;;;;;26.58;13.80;;;1.90;99.90;;;;;;5004638;28;20029;-72
2021/12/06 09:12:53;;;;;;;25.33;13.43;;;1.90;99.90;;;;;;5021079;28;20152;-73
2021/12/06 09:15:21;;;;;;;29.30;13.43;;;2.00;99.90;;;;;;5021635;28;20029;-72
2021/12/06 09:17:48;;;;;;;27.00;13.75;;;2.00;99.90;;;;;;5004675;28;20071;-73
2021/12/06 09:20:14;;;;;;;25.60;13.40;;;2.00;99.90;;;;;;5016050;28;20026;-72
2021/12/06 09:22:41;;;;;;;28.23;14.05;;;2.10;99.90;;;;;;5025734;28;20159;-73
2021/12/06 09:25:09;;;;;;;24.77;13.32;;;2.00;99.90;;;;;;5021350;28;20057;-74
2021/12/06 09:27:35;;;;;;;28.83;14.35;;;2.00;99.90;;;;;;5009165;28;20106;-74
2021/12/06 09:30:02;;;;;;;29.33;15.13;;;2.00;99.90;;;;;;5014873;28;20041;-72
2021/12/06 09:32:28;;;;;;;28.05;14.02;;;2.10;99.90;;;;;;5024162;28;20105;-72
2021/12/06 09:34:58;;;;;;;31.75;15.02;;;2.10;99.90;;;;;;5015119;28;20104;-72
2021/12/06 09:37:24;;;;;;;36.22;17.75;;;2.10;99.90;;;;;;5019784;28;20025;-72
2021/12/06 09:39:50;;;;;;;31.83;15.32;;;2.10;99.90;;;;;;5018512;28;20037;-72
2021/12/06 09:42:18;;;;;;;29.80;14.77;;;2.10;99.90;;;;;;5021858;28;20029;-72
2021/12/06 09:44:45;;;;;;;32.60;15.98;;;2.10;99.90;;;;;;5017984;28;20041;-72
2021/12/06 09:47:12;;;;;;;32.58;16.17;;;2.20;99.90;;;;;;5016113;28;20464;-72
2021/12/06 09:49:38;;;;;;;37.30;16.67;;;2.30;99.90;;;;;;5018550;28;20036;-72
2021/12/06 09:52:06;;;;;;;36.45;17.83;;;2.20;99.90;;;;;;4998773;28;20033;-72
2021/12/06 09:54:34;;;;;;;36.90;16.73;;;2.20;99.90;;;;;;5019176;28;20468;-72
2021/12/06 09:57:02;;;;;;;33.75;16.50;;;2.10;99.90;;;;;;5016293;28;20036;-72
2021/12/06 09:59:29;;;;;;;36.25;17.50;;;2.00;99.90;;;;;;5022327;28;20365;-72
2021/12/06 10:01:59;;;;;;;34.13;16.75;;;2.00;99.90;;;;;;5018465;28;20022;-72
2021/12/06 10:04:28;;;;;;;38.13;18.02;;;2.00;99.90;;;;;;5018322;28;20018;-72
2021/12/06 10:06:55;;;;;;;33.08;17.27;;;2.10;99.90;;;;;;5012622;28;20022;-72
2021/12/06 10:09:22;;;;;;;34.90;16.98;;;2.20;99.90;;;;;;5017310;28;20037;-72
2021/12/06 10:11:52;;;;;;;36.28;17.85;;;2.30;99.90;;;;;;5019243;28;20038;-72
2021/12/06 10:14:18;;;;;;;36.90;17.88;;;2.30;99.90;;;;;;5021957;28;20088;-73
2021/12/06 10:16:45;;;;;;;35.03;18.10;;;2.30;99.90;;;;;;5019762;28;20075;-73
2021/12/06 10:19:12;;;;;;;39.85;18.38;;;2.20;99.90;;;;;;5016270;28;20077;-73
2021/12/06 10:21:39;;;;;;;38.67;18.55;;;2.20;99.90;;;;;;5017221;28;20578;-73
2021/12/06 10:24:12;;;;;;;36.92;18.42;;;2.20;99.90;;;;;;5016560;28;20042;-73
2021/12/06 10:26:38;;;;;;;36.90;17.58;;;2.10;99.90;;;;;;5024714;28;20388;-73
2021/12/06 10:29:33;;;;;;;38.25;19.15;;;2.10;99.90;;;;;;5017267;28;20032;-73
2021/12/06 10:31:59;;;;;;;38.30;19.70;;;2.10;99.90;;;;;;5016973;28;20061;-73
2021/12/06 10:34:27;;;;;;;40.30;20.35;;;2.20;99.90;;;;;;5022061;28;20029;-71
2021/12/06 10:36:54;;;;;;;47.25;21.83;;;2.10;99.90;;;;;;5027435;28;20112;-74
2021/12/06 10:39:22;;;;;;;45.63;20.98;;;2.10;99.90;;;;;;5022753;28;20512;-73
2021/12/06 10:41:53;;;;;;;45.83;22.95;;;2.10;99.90;;;;;;5021383;28;20033;-73
2021/12/06 10:44:19;;;;;;;49.38;23.42;;;2.10;99.90;;;;;;5021395;28;20037;-72
2021/12/06 10:46:52;;;;;;;45.85;22.60;;;2.10;99.90;;;;;;5017943;28;20052;-73
2021/12/06 10:49:25;;;;;;;47.53;23.15;;;2.10;99.90;;;;;;5016623;28;20042;-73
2021/12/06 10:51:51;;;;;;;43.97;22.45;;;2.00;99.90;;;;;;5018657;28;20040;-73
2021/12/06 10:54:28;;;;;;;44.90;21.90;;;2.00;99.90;;;;;;5019409;28;20034;-72
2021/12/06 10:56:58;;;;;;;44.10;23.30;;;2.00;99.90;;;;;;5020965;28;20454;-73
2021/12/06 10:59:28;;;;;;;53.35;25.02;;;2.00;99.90;;;;;;5019425;28;20076;-73
2021/12/06 11:02:05;;;;;;;49.70;25.13;;;1.90;99.90;;;;;;5018649;28;20062;-73
2021/12/06 11:04:31;;;;;;;53.85;25.50;;;2.00;99.90;;;;;;5020845;28;20030;-72
2021/12/06 11:07:05;;;;;;;52.08;24.85;;;2.00;99.90;;;;;;5021329;28;20380;-73
2021/12/06 11:09:34;;;;;;;51.05;24.52;;;2.00;99.90;;;;;;5016150;28;20026;-74
2021/12/06 11:12:03;;;;;;;52.40;24.80;;;2.10;99.90;;;;;;5020253;28;20036;-73
2021/12/06 11:14:35;;;;;;;46.13;23.45;;;2.00;99.90;;;;;;5007375;28;20021;-72
2021/12/06 11:17:05;;;;;;;49.20;25.02;;;2.00;99.90;;;;;;5009155;28;20048;-72
2021/12/06 11:19:31;;;;;;;49.28;24.33;;;2.00;99.90;;;;;;5020459;28;20456;-72
2021/12/06 11:22:16;;;;;;;49.53;23.92;;;2.00;99.90;;;;;;5017617;28;20034;-72
2021/12/06 11:24:46;;;;;;;44.30;22.88;;;2.10;99.90;;;;;;5005490;28;20022;-72
2021/12/06 11:27:20;;;;;;;48.90;23.05;;;2.00;99.90;;;;;;5016425;28;20079;-72
2021/12/06 11:29:49;;;;;;;47.97;23.55;;;2.00;99.90;;;;;;5015123;28;20034;-72
2021/12/06 11:32:15;;;;;;;45.70;22.80;;;2.00;99.90;;;;;;5001852;28;20028;-72
2021/12/06 11:34:51;;;;;;;46.58;23.85;;;2.00;99.90;;;;;;5018483;28;20594;-72
2021/12/06 11:37:29;;;;;;;48.92;23.42;;;2.00;99.90;;;;;;5018218;28;20026;-72
2021/12/06 11:40:38;;;;;;;45.50;22.85;;;2.00;99.90;;;;;;5001765;28;20033;-72
2021/12/06 11:43:10;;;;;;;50.35;23.73;;;2.10;99.90;;;;;;4989398;28;20048;-72
2021/12/06 11:45:52;;;;;;;49.63;24.85;;;2.00;99.90;;;;;;5017527;28;20030;-72
2021/12/06 11:48:30;;;;;;;50.90;25.55;;;2.00;99.90;;;;;;5014825;28;20505;-73
2021/12/06 11:51:00;;;;;;;52.60;24.35;;;2.10;99.90;;;;;;5021943;28;20030;-74
2021/12/06 11:53:34;;;;;;;49.63;23.88;;;2.00;99.90;;;;;;5012241;28;20083;-73
2021/12/06 11:56:13;;;;;;;51.63;25.52;;;2.00;99.90;;;;;;5020960;28;20018;-74
2021/12/06 11:58:40;;;;;;;54.17;25.00;;;2.00;99.90;;;;;;5010647;28;20026;-74
2021/12/06 12:01:12;;;;;;;51.35;25.85;;;1.90;99.90;;;;;;5006046;28;20116;-73
2021/12/06 12:03:40;;;;;;;58.05;26.08;;;2.00;99.90;;;;;;5014557;28;20122;-73
2021/12/06 12:06:34;;;;;;;47.20;25.27;;;2.00;99.90;;;;;;5014933;28;20030;-73
2021/12/06 12:09:19;;;;;;;105.28;42.58;;;2.00;99.90;;;;;;4997253;28;20038;-73
2021/12/06 12:11:55;;;;;;;46.35;24.88;;;2.60;99.90;;;;;;5021759;28;20060;-73
2021/12/06 12:14:27;;;;;;;49.85;25.13;;;2.80;99.90;;;;;;5009361;28;20033;-72
2021/12/06 12:16:53;;;;;;;49.40;24.48;;;2.70;99.90;;;;;;5018361;28;20022;-73
2021/12/06 12:19:19;;;;;;;56.17;26.02;;;2.60;99.90;;;;;;5017393;28;20033;-73
2021/12/06 12:21:47;;;;;;;51.40;26.35;;;2.40;99.90;;;;;;5019760;28;20034;-73
2021/12/06 12:24:13;;;;;;;49.58;24.63;;;2.40;99.90;;;;;;5015792;28;20507;-76
2021/12/06 12:26:50;;;;;;;50.47;25.13;;;2.30;99.90;;;;;;5016273;28;20065;-73
2021/12/06 12:29:24;;;;;;;54.05;26.88;;;2.40;99.90;;;;;;5017843;28;20488;-76
2021/12/06 12:31:51;;;;;;;47.90;24.52;;;2.30;99.90;;;;;;5014959;28;20021;-76
2021/12/06 12:34:17;;;;;;;56.47;27.20;;;2.30;99.90;;;;;;5020253;28;20045;-78
2021/12/06 12:36:43;;;;;;;52.58;25.10;;;2.30;99.90;;;;;;5024671;28;20563;-78
2021/12/06 12:39:19;;;;;;;49.30;23.98;;;2.20;99.90;;;;;;5019364;28;20037;-79
2021/12/06 12:41:50;;;;;;;56.20;25.10;;;2.10;99.90;;;;;;5016227;28;20029;-79
2021/12/06 12:44:17;;;;;;;48.83;23.92;;;2.10;99.90;;;;;;5018691;28;20038;-78
2021/12/06 12:46:45;;;;;;;50.70;25.02;;;2.00;99.90;;;;;;5015514;28;20092;-75
2021/12/06 12:49:21;;;;;;;51.33;24.17;;;2.00;99.90;;;;;;5015172;28;20547;-72
2021/12/06 12:51:49;;;;;;;56.20;25.10;;;2.10;99.90;;;;;;5016426;28;20038;-78
2021/12/06 12:54:17;;;;;;;50.63;24.23;;;2.30;99.90;;;;;;5017443;28;20036;-74
2021/12/06 12:56:51;;;;;;;52.85;24.40;;;2.20;99.90;;;;;;5021443;28;20108;-75
2021/12/06 12:59:33;;;;;;;50.95;23.02;;;2.20;99.90;;;;;;5018739;28;20080;-72
2021/12/06 13:02:24;;;;;;;44.83;22.00;;;2.10;99.90;;;;;;5016888;28;20037;-72